Hyak, Washington
Current Conditions -  °F | °C
As of 7:53 AM on Friday 28 Nov 2014 (Local Time) from KRNT Reporting Station
Overcast Overcast  
Wind Chill: 57°   Ceiling: 2600
Heat Index: 57°   Visibility: 10mi
Dew Point: 50°   Wind: 12mph
Humidity: 77%   Direction: 170°S
Pressure: 29.5"   Gusts: NA
Location:  47.4076°N, 121.414°W
Report Text: KRNT 281553Z 17010KT 10SM BKN026 BKN030 OVC045 14/10 A2950 RMK AO2 RAB27E48 SLP996 P0000 T01390100
Loading
Personal Weather Stations






























Interactive Weather Map New forecast layout! Learn more

10-Day Weather Forecast

Advertisements
Track Severe Weather on mobile